PANT METAR and TAF weather

Enter ICAO airport designator
Station Type Date Time Source
PANT METAR 2019/05/26 22:53 UTC NOAA

PANT 262253Z AUTO VRB04KT 10SM CLR 23/12 A2996 RMK SLP147 T02330117 TSNO $ VIA AUTODIAL


Station Type Date Time Source
PANT Decoded METAR 2019/05/26 22:53 UTC NOAA

ANNETTE ISLAND AIRPORT, AK, United States (PANT) 55-02N 131-35W 34M
May 26, 2019 - 06:53 PM EDT / 2019.05.26 2253 UTC
Wind: Variable at 5 MPH (4 KT):0
Visibility: 10 mile(s):0
Sky conditions: clear
Temperature: 73.9 F (23.3 C)
Dew Point: 53.1 F (11.7 C)
Relative Humidity: 48%
Pressure (altimeter): 29.96 in. Hg (1014 hPa)
ob: PANT 262253Z AUTO VRB04KT 10SM CLR 23/12 A2996 RMK SLP147 T02330117 TSNO VIA AUTODIAL
cycle: 23

Station Type Date Time Source
PANT TAF UTC NOAA

Error!

Example: see airport list